createdAt,value
2019-02-14T00:02:13.041Z,41.10
2019-02-14T00:04:42.016Z,39.43
2019-02-14T00:07:11.022Z,45.50
2019-02-14T00:09:40.165Z,42.13
2019-02-14T00:12:11.661Z,49.20
2019-02-14T00:14:42.015Z,39.13
2019-02-14T00:17:11.659Z,38.53
2019-02-14T00:19:42.087Z,41.93
2019-02-14T00:22:18.113Z,36.80
2019-02-14T00:25:00.920Z,37.10
2019-02-14T00:27:33.925Z,39.00
2019-02-14T00:30:06.011Z,37.57
2019-02-14T00:36:02.210Z,40.10
2019-02-14T00:38:36.257Z,40.80
2019-02-14T00:41:09.909Z,40.23
2019-02-14T00:43:40.773Z,36.20
2019-02-14T00:46:10.234Z,39.77
2019-02-14T00:48:39.940Z,37.40
2019-02-14T00:51:09.622Z,37.43
2019-02-14T00:53:43.675Z,43.80
2019-02-14T00:56:13.846Z,41.83
2019-02-14T00:58:43.943Z,33.87
2019-02-14T01:01:13.154Z,40.67
2019-02-14T01:03:48.195Z,42.00
2019-02-14T01:06:18.294Z,37.00
2019-02-14T01:08:47.611Z,35.80
2019-02-14T01:11:18.032Z,37.03
2019-02-14T01:13:48.562Z,35.43
2019-02-14T01:16:18.328Z,53.07
2019-02-14T01:18:48.063Z,37.27
2019-02-14T01:21:17.354Z,36.80
2019-02-14T01:26:39.249Z,35.00
2019-02-14T01:29:10.555Z,36.47
2019-02-14T01:31:39.565Z,34.43
2019-02-14T01:34:08.819Z,35.37
2019-02-14T01:36:37.858Z,36.90
2019-02-14T01:39:07.841Z,33.03
2019-02-14T01:41:36.798Z,38.67
2019-02-14T01:44:05.749Z,33.70
2019-02-14T01:46:34.685Z,33.90
2019-02-14T01:49:03.625Z,31.33
2019-02-14T01:51:32.504Z,38.47
2019-02-14T01:54:02.522Z,34.73
2019-02-14T01:56:31.746Z,34.23
2019-02-14T01:59:00.715Z,32.13
2019-02-14T02:01:29.563Z,29.47
2019-02-14T02:03:58.515Z,26.10
2019-02-14T02:06:27.427Z,23.17
2019-02-14T02:08:58.580Z,25.27
2019-02-14T02:11:28.712Z,24.80
2019-02-14T02:14:00.099Z,22.70
2019-02-14T02:16:30.813Z,22.23
2019-02-14T02:19:00.000Z,20.60
2019-02-14T02:21:29.890Z,26.13
2019-02-14T02:24:01.512Z,24.87
2019-02-14T02:26:31.463Z,21.63
2019-02-14T02:29:01.328Z,22.57
2019-02-14T02:31:30.422Z,20.63
2019-02-14T02:33:59.707Z,21.10
2019-02-14T02:36:28.989Z,26.73
2019-02-14T02:38:57.930Z,23.43
2019-02-14T02:41:27.164Z,21.87
2019-02-14T02:43:56.315Z,20.03
2019-02-14T02:46:25.298Z,23.80
2019-02-14T02:48:54.380Z,19.57
2019-02-14T02:51:24.315Z,20.63
2019-02-14T02:53:56.433Z,23.10
2019-02-14T02:56:25.423Z,18.27
2019-02-14T02:58:54.405Z,22.77
2019-02-14T03:01:23.662Z,18.40
2019-02-14T03:03:53.870Z,22.30
2019-02-14T03:06:24.461Z,22.87
2019-02-14T03:08:53.342Z,18.80
2019-02-14T03:11:22.357Z,22.50
2019-02-14T03:13:51.803Z,20.40
2019-02-14T03:16:20.753Z,23.73
2019-02-14T03:18:50.415Z,25.53
2019-02-14T03:21:19.231Z,25.30
2019-02-14T03:23:48.526Z,25.43
2019-02-14T03:26:18.273Z,21.63
2019-02-14T03:28:47.305Z,23.10
2019-02-14T03:31:16.214Z,20.70
2019-02-14T03:33:45.581Z,28.10
2019-02-14T03:36:19.227Z,26.37
2019-02-14T03:38:46.759Z,23.67
2019-02-14T03:41:17.911Z,25.90
2019-02-14T03:43:46.941Z,23.37
2019-02-14T03:46:16.850Z,28.63
2019-02-14T03:48:45.862Z,28.73
2019-02-14T03:51:15.308Z,32.37
2019-02-14T03:53:54.829Z,29.37
2019-02-14T03:56:25.785Z,27.43
2019-02-14T03:58:54.961Z,31.60
2019-02-14T04:01:24.798Z,27.87
2019-02-14T04:03:53.921Z,31.40
2019-02-14T04:06:27.438Z,34.73
2019-02-14T04:08:55.884Z,34.23
2019-02-14T04:11:24.964Z,31.20
2019-02-14T04:13:58.414Z,32.97
2019-02-14T04:16:28.034Z,32.50
2019-02-14T04:18:57.296Z,35.80
2019-02-14T04:21:26.582Z,26.77
2019-02-14T04:23:55.971Z,29.40
2019-02-14T04:26:25.399Z,27.53
2019-02-14T04:28:54.334Z,30.53
2019-02-14T04:31:25.588Z,29.43
2019-02-14T04:33:54.815Z,29.23
2019-02-14T04:36:24.166Z,27.70
2019-02-14T04:38:53.214Z,25.47
2019-02-14T04:41:25.034Z,26.57
2019-02-14T04:44:02.591Z,35.17
2019-02-14T04:46:32.266Z,24.97
2019-02-14T04:49:02.017Z,23.43
2019-02-14T04:51:31.577Z,25.13
2019-02-14T04:54:05.912Z,25.70
2019-02-14T04:56:35.208Z,27.33
2019-02-14T04:59:06.630Z,21.97
2019-02-14T05:01:35.584Z,24.83
2019-02-14T05:04:05.699Z,26.37
2019-02-14T05:06:35.055Z,27.30
2019-02-14T05:09:06.376Z,21.80
2019-02-14T05:11:36.343Z,24.17
2019-02-14T05:14:05.663Z,26.73
2019-02-14T05:16:34.823Z,21.00
2019-02-14T05:19:04.583Z,22.00
2019-02-14T05:21:34.402Z,25.07
2019-02-14T05:24:09.226Z,26.23
2019-02-14T05:26:38.316Z,25.80
2019-02-14T05:29:09.417Z,27.33
2019-02-14T05:31:43.226Z,25.27
2019-02-14T05:34:13.909Z,23.83
2019-02-14T05:36:43.835Z,23.73
2019-02-14T05:39:13.761Z,26.27
2019-02-14T05:41:43.493Z,26.20
2019-02-14T05:44:14.699Z,25.63
2019-02-14T05:46:45.983Z,24.07
2019-02-14T05:49:18.634Z,25.57
2019-02-14T05:51:49.138Z,26.20
2019-02-14T05:54:22.256Z,26.37
2019-02-14T05:57:00.454Z,29.13
2019-02-14T05:59:35.671Z,26.70
2019-02-14T06:02:05.403Z,28.00
2019-02-14T06:04:35.486Z,24.40
2019-02-14T06:07:08.311Z,23.30
2019-02-14T06:09:38.558Z,24.87
2019-02-14T06:12:07.876Z,24.67
2019-02-14T06:14:36.937Z,27.57
2019-02-14T06:17:06.858Z,26.23
2019-02-14T06:19:38.142Z,27.03
2019-02-14T06:22:08.118Z,28.87
2019-02-14T06:24:42.665Z,27.47
2019-02-14T06:27:13.921Z,31.70
2019-02-14T06:29:43.872Z,27.53
2019-02-14T06:32:16.620Z,28.23
2019-02-14T06:34:47.746Z,26.77
2019-02-14T06:37:25.353Z,27.20
2019-02-14T06:39:55.990Z,26.60
2019-02-14T06:42:26.705Z,24.20
2019-02-14T06:45:08.471Z,27.70
2019-02-14T06:47:40.343Z,25.53
2019-02-14T06:50:19.722Z,27.40
2019-02-14T06:53:05.312Z,27.70
2019-02-14T06:55:46.001Z,25.20
2019-02-14T06:58:36.974Z,24.37
2019-02-14T07:01:26.871Z,23.50
2019-02-14T07:04:08.198Z,25.73
2019-02-14T07:07:01.309Z,24.20
2019-02-14T07:09:22.179Z,24.10
2019-02-14T07:11:58.998Z,23.40
2019-02-14T07:14:48.453Z,25.80
2019-02-14T07:17:18.066Z,26.47
2019-02-14T07:19:49.637Z,21.63
2019-02-14T07:22:23.547Z,27.13
2019-02-14T07:24:52.685Z,26.60
2019-02-14T07:27:21.581Z,26.33
2019-02-14T07:29:50.464Z,28.20
2019-02-14T07:32:19.642Z,30.60
2019-02-14T07:34:48.534Z,24.53
2019-02-14T07:37:17.464Z,28.97
2019-02-14T07:39:46.414Z,27.03
2019-02-14T07:42:15.679Z,31.50
2019-02-14T07:44:44.578Z,28.20
2019-02-14T07:47:13.568Z,29.47
2019-02-14T07:49:42.466Z,31.17
2019-02-14T07:52:11.811Z,30.63
2019-02-14T07:54:40.733Z,34.43
2019-02-14T07:57:09.626Z,33.83
2019-02-14T07:59:38.546Z,28.77
2019-02-14T08:02:07.774Z,28.93
2019-02-14T08:04:37.061Z,28.87
2019-02-14T08:07:35.442Z,29.40
2019-02-14T08:09:58.322Z,30.17
2019-02-14T08:12:27.494Z,29.50
2019-02-14T08:14:56.465Z,25.00
2019-02-14T08:17:25.456Z,23.83
2019-02-14T08:19:54.465Z,29.87
2019-02-14T08:22:28.834Z,28.80
2019-02-14T08:24:58.816Z,24.20
2019-02-14T08:27:27.645Z,26.87
2019-02-14T08:29:56.707Z,27.73
2019-02-14T08:32:25.697Z,27.90
2019-02-14T08:34:54.812Z,31.77
2019-02-14T08:37:25.389Z,23.70
2019-02-14T08:39:54.333Z,29.93
2019-02-14T08:42:23.489Z,27.30
2019-02-14T08:44:53.562Z,31.37
2019-02-14T08:47:22.430Z,33.67
2019-02-14T08:49:51.357Z,24.93
2019-02-14T08:52:20.364Z,25.30
2019-02-14T08:54:49.305Z,28.77
2019-02-14T08:57:18.182Z,30.90
2019-02-14T08:59:47.230Z,29.17
2019-02-14T09:02:16.289Z,33.77
2019-02-14T09:04:45.161Z,32.93
2019-02-14T09:07:14.083Z,30.77
2019-02-14T09:09:42.930Z,27.37
2019-02-14T09:12:12.309Z,30.73
2019-02-14T09:14:42.450Z,37.17
2019-02-14T09:17:11.359Z,34.10
2019-02-14T09:19:40.326Z,36.27
2019-02-14T09:22:09.224Z,28.87
2019-02-14T09:24:39.225Z,35.17
2019-02-14T09:27:08.146Z,33.90
2019-02-14T09:29:37.314Z,32.97
2019-02-14T09:32:06.309Z,26.37
2019-02-14T09:34:35.237Z,27.23
2019-02-14T09:37:04.181Z,30.33
2019-02-14T09:39:40.794Z,34.63
2019-02-14T09:42:03.771Z,37.63
2019-02-14T09:44:32.746Z,32.60
2019-02-14T09:47:01.649Z,35.13
2019-02-14T09:49:32.097Z,32.93
2019-02-14T09:52:01.411Z,30.40
2019-02-14T09:54:30.723Z,35.07
2019-02-14T09:57:01.077Z,31.90
2019-02-14T09:59:31.573Z,34.03
2019-02-14T10:02:00.730Z,30.93
2019-02-14T10:04:29.862Z,29.33
2019-02-14T10:06:58.769Z,39.00
2019-02-14T10:09:27.633Z,37.73
2019-02-14T10:11:56.672Z,37.43
2019-02-14T10:14:25.853Z,38.00
2019-02-14T10:16:54.710Z,32.30
2019-02-14T10:19:23.562Z,40.37
2019-02-14T10:21:52.535Z,32.87
2019-02-14T10:24:22.070Z,35.17
2019-02-14T10:26:53.164Z,36.20
2019-02-14T10:29:22.394Z,33.23
2019-02-14T10:31:51.393Z,30.97
2019-02-14T10:34:20.391Z,36.07
2019-02-14T10:36:49.767Z,35.30
2019-02-14T10:39:19.418Z,32.30
2019-02-14T10:41:48.403Z,32.67
2019-02-14T10:44:17.844Z,34.27
2019-02-14T10:46:48.816Z,32.93
2019-02-14T10:49:21.231Z,32.97
2019-02-14T10:51:50.366Z,34.97
2019-02-14T10:54:20.245Z,38.90
2019-02-14T10:56:49.818Z,35.83
2019-02-14T10:59:19.431Z,38.30
2019-02-14T11:01:49.414Z,37.17
2019-02-14T11:04:20.135Z,36.10
2019-02-14T11:06:52.188Z,38.47
2019-02-14T11:09:24.130Z,45.10
2019-02-14T11:11:54.325Z,36.97
2019-02-14T11:14:29.311Z,35.50
2019-02-14T11:16:59.035Z,39.03
2019-02-14T11:19:27.974Z,39.37
2019-02-14T11:21:57.150Z,39.00
2019-02-14T11:24:26.052Z,34.90
2019-02-14T11:26:55.065Z,37.87
2019-02-14T11:29:24.265Z,36.97
2019-02-14T11:31:54.036Z,40.03
2019-02-14T11:34:23.576Z,36.97
2019-02-14T11:36:52.841Z,39.97
2019-02-14T11:39:21.847Z,36.93
2019-02-14T11:41:50.941Z,38.23
2019-02-14T11:44:19.909Z,36.17
2019-02-14T11:46:51.610Z,39.83
2019-02-14T11:49:21.502Z,39.90
2019-02-14T11:51:54.343Z,40.83
2019-02-14T11:54:23.322Z,43.93
2019-02-14T11:56:52.952Z,45.43
2019-02-14T11:59:21.915Z,44.93
2019-02-14T12:01:55.358Z,50.03
2019-02-14T12:04:22.584Z,45.50
2019-02-14T12:06:53.107Z,45.13
2019-02-14T12:09:22.252Z,41.73
2019-02-14T12:11:51.825Z,43.00
2019-02-14T12:14:23.326Z,48.43
2019-02-14T12:16:52.304Z,40.23
2019-02-14T12:19:21.244Z,40.87
2019-02-14T12:21:52.699Z,44.47
2019-02-14T12:24:22.659Z,41.37
2019-02-14T12:26:55.617Z,44.47
2019-02-14T12:29:24.466Z,40.23
2019-02-14T12:31:53.460Z,42.47
2019-02-14T12:34:22.458Z,37.83
2019-02-14T12:36:52.159Z,40.73
2019-02-14T12:39:23.728Z,40.17
2019-02-14T12:41:52.894Z,39.83
2019-02-14T12:44:21.873Z,43.67
2019-02-14T12:46:54.516Z,40.00
2019-02-14T12:49:23.428Z,39.63
2019-02-14T12:51:52.643Z,37.17
2019-02-14T12:54:21.632Z,37.30
2019-02-14T12:56:50.583Z,38.20
2019-02-14T12:59:19.623Z,37.67
2019-02-14T13:01:48.593Z,37.50
2019-02-14T13:04:17.777Z,37.43
2019-02-14T13:06:46.782Z,38.57
2019-02-14T13:09:20.453Z,35.70
2019-02-14T13:11:49.441Z,41.73
2019-02-14T13:14:18.460Z,39.77
2019-02-14T13:16:48.153Z,35.60
2019-02-14T13:19:18.000Z,39.23
2019-02-14T13:21:47.202Z,39.53
2019-02-14T13:24:16.089Z,39.30
2019-02-14T13:26:45.937Z,44.40
2019-02-14T13:29:16.023Z,43.63
2019-02-14T13:31:44.937Z,49.10
2019-02-14T13:34:13.950Z,43.63
2019-02-14T13:36:42.972Z,46.30
2019-02-14T13:39:12.014Z,53.00
2019-02-14T13:41:42.458Z,47.23
2019-02-14T13:44:11.410Z,50.87
2019-02-14T13:46:40.542Z,53.27
2019-02-14T13:49:09.928Z,50.13
2019-02-14T13:51:39.093Z,57.53
2019-02-14T13:54:08.063Z,51.13
2019-02-14T13:56:39.334Z,60.20
2019-02-14T13:59:08.360Z,54.97
2019-02-14T14:01:37.303Z,57.53
2019-02-14T14:04:07.806Z,54.40
2019-02-14T14:06:37.146Z,66.33
2019-02-14T14:09:09.309Z,60.37
2019-02-14T14:11:38.302Z,62.37
2019-02-14T14:14:07.740Z,56.73
2019-02-14T14:16:36.690Z,55.67
2019-02-14T14:19:06.597Z,58.93
2019-02-14T14:21:35.674Z,51.30
2019-02-14T14:24:09.732Z,60.53
2019-02-14T14:26:38.641Z,57.50
2019-02-14T14:29:08.951Z,56.17
2019-02-14T14:31:37.921Z,56.67
2019-02-14T14:34:06.954Z,55.80
2019-02-14T14:36:35.930Z,53.47
2019-02-14T14:39:06.000Z,51.10
2019-02-14T14:41:35.641Z,51.40
2019-02-14T14:44:09.685Z,49.13
2019-02-14T14:47:00.463Z,46.90
2019-02-14T14:49:29.537Z,45.63
2019-02-14T14:51:58.816Z,52.10
2019-02-14T14:54:28.385Z,50.30
2019-02-14T14:56:58.542Z,48.13
2019-02-14T14:59:30.978Z,48.83
2019-02-14T15:01:59.867Z,50.57
2019-02-14T15:04:28.771Z,52.43
2019-02-14T15:07:00.095Z,51.57
2019-02-14T15:09:28.999Z,50.97
2019-02-14T15:11:58.078Z,47.53
2019-02-14T15:14:28.858Z,48.47
2019-02-14T15:16:57.735Z,46.60
2019-02-14T15:19:26.690Z,48.40
2019-02-14T15:21:58.645Z,52.33
2019-02-14T15:24:27.510Z,54.47
2019-02-14T15:26:57.410Z,55.00
2019-02-14T15:29:26.491Z,53.57
2019-02-14T15:31:55.388Z,58.73
2019-02-14T15:34:27.057Z,60.50
2019-02-14T15:36:55.988Z,56.43
2019-02-14T15:39:24.877Z,58.23
2019-02-14T15:41:56.094Z,62.93
2019-02-14T15:44:24.552Z,60.20
2019-02-14T15:46:53.563Z,59.77
2019-02-14T15:49:25.272Z,62.03
2019-02-14T15:51:54.938Z,63.70
2019-02-14T15:54:26.021Z,67.43
2019-02-14T15:56:56.514Z,60.37
2019-02-14T15:59:26.043Z,64.60
2019-02-14T16:01:55.400Z,66.73
2019-02-14T16:04:26.669Z,68.30
2019-02-14T16:06:56.338Z,73.47
2019-02-14T16:09:25.269Z,73.87
2019-02-14T16:11:55.364Z,70.20
2019-02-14T16:14:25.050Z,69.90
2019-02-14T16:16:53.951Z,72.80
2019-02-14T16:19:23.463Z,75.23
2019-02-14T16:21:54.290Z,73.43
2019-02-14T16:24:28.782Z,66.27
2019-02-14T16:26:59.263Z,70.47
2019-02-14T16:29:30.425Z,72.00
2019-02-14T16:31:59.626Z,70.10
2019-02-14T16:34:29.595Z,71.53
2019-02-14T16:36:58.606Z,72.57
2019-02-14T16:39:28.670Z,66.30
2019-02-14T16:41:59.270Z,66.67
2019-02-14T16:44:30.168Z,77.00
2019-02-14T16:46:59.204Z,74.60
2019-02-14T16:49:28.313Z,66.60
2019-02-14T16:51:57.546Z,69.37
2019-02-14T16:54:26.795Z,64.27
2019-02-14T16:56:58.733Z,67.40
2019-02-14T16:59:27.749Z,65.70
2019-02-14T17:01:57.948Z,66.53
2019-02-14T17:04:26.946Z,72.50
2019-02-14T17:06:56.026Z,71.93
2019-02-14T17:09:27.078Z,64.63
2019-02-14T17:11:57.538Z,65.70
2019-02-14T17:14:26.770Z,64.37
2019-02-14T17:16:56.224Z,64.00
2019-02-14T17:19:27.134Z,65.80
2019-02-14T17:21:56.071Z,61.97
2019-02-14T17:24:25.014Z,60.17
2019-02-14T17:26:54.601Z,61.60
2019-02-14T17:29:23.682Z,57.03
2019-02-14T17:31:53.491Z,61.03
2019-02-14T17:34:27.038Z,63.53
2019-02-14T17:36:58.291Z,55.27
2019-02-14T17:39:27.356Z,55.27
2019-02-14T17:41:57.625Z,54.37
2019-02-14T17:44:32.302Z,57.23
2019-02-14T17:47:03.566Z,58.17
2019-02-14T17:49:32.494Z,56.37
2019-02-14T17:52:04.709Z,58.23
2019-02-14T17:54:34.029Z,54.70
2019-02-14T17:57:04.190Z,55.47
2019-02-14T17:59:33.574Z,53.20
2019-02-14T18:02:02.771Z,53.00
2019-02-14T18:04:32.182Z,53.97
2019-02-14T18:07:01.142Z,55.03
2019-02-14T18:09:30.389Z,59.83
2019-02-14T18:11:59.353Z,51.43
2019-02-14T18:14:30.423Z,53.77
2019-02-14T18:16:59.465Z,51.23
2019-02-14T18:19:28.459Z,48.40
2019-02-14T18:21:57.904Z,48.37
2019-02-14T18:24:48.865Z,51.97
2019-02-14T18:27:19.017Z,48.40
2019-02-14T18:29:48.695Z,45.33
2019-02-14T18:32:17.730Z,51.97
2019-02-14T18:34:46.793Z,53.77
2019-02-14T18:37:15.688Z,54.40
2019-02-14T18:39:44.548Z,47.47
2019-02-14T18:42:13.438Z,47.20
2019-02-14T18:44:42.388Z,50.37
2019-02-14T18:47:11.307Z,46.43
2019-02-14T18:49:40.253Z,49.20
2019-02-14T18:52:29.357Z,41.93
2019-02-14T18:54:58.279Z,44.23
2019-02-14T18:57:27.174Z,42.97
2019-02-14T18:59:58.309Z,48.23
2019-02-14T19:02:27.353Z,42.63
2019-02-14T19:04:56.318Z,51.80
2019-02-14T19:07:25.222Z,49.73
2019-02-14T19:09:54.526Z,46.70
2019-02-14T19:12:23.717Z,49.23
2019-02-14T19:14:54.172Z,42.33
2019-02-14T19:17:23.090Z,39.77
2019-02-14T19:19:53.154Z,43.47
2019-02-14T19:22:22.369Z,37.73
2019-02-14T19:24:51.213Z,37.33
2019-02-14T19:27:23.074Z,37.60
2019-02-14T19:29:52.095Z,39.43
2019-02-14T19:32:20.997Z,37.17
2019-02-14T19:34:52.303Z,36.73
2019-02-14T19:37:20.714Z,31.20
2019-02-14T19:39:51.026Z,31.30
2019-02-14T19:42:21.967Z,32.07
2019-02-14T19:44:51.327Z,30.20
2019-02-14T19:47:20.373Z,31.43
2019-02-14T19:49:49.330Z,29.93
2019-02-14T19:52:18.593Z,29.57
2019-02-14T19:54:48.502Z,30.43
2019-02-14T19:57:21.944Z,31.97
2019-02-14T19:59:51.773Z,27.93
2019-02-14T20:02:29.284Z,26.60
2019-02-14T20:05:00.488Z,30.20
2019-02-14T20:07:29.883Z,31.53
2019-02-14T20:10:00.568Z,32.73
2019-02-14T20:13:00.721Z,29.30
2019-02-14T20:15:37.089Z,31.37
2019-02-14T20:18:03.886Z,32.93
2019-02-14T20:20:32.801Z,30.77
2019-02-14T20:23:07.769Z,37.77
2019-02-14T20:25:38.928Z,30.43
2019-02-14T20:28:15.297Z,29.77
2019-02-14T20:30:56.437Z,30.10
2019-02-14T20:33:34.270Z,27.77
2019-02-14T20:36:36.722Z,34.10
2019-02-14T20:39:09.352Z,32.70
2019-02-14T20:41:45.999Z,37.07
2019-02-14T20:44:10.930Z,28.43
2019-02-14T20:46:41.885Z,31.03
2019-02-14T20:49:12.091Z,33.17
2019-02-14T20:51:42.636Z,27.90
2019-02-14T20:54:20.178Z,26.90
2019-02-14T20:56:49.288Z,28.73
2019-02-14T20:59:20.243Z,27.67
2019-02-14T21:01:51.273Z,34.17
2019-02-14T21:04:22.156Z,27.70
2019-02-14T21:06:55.024Z,30.37
2019-02-14T21:09:24.345Z,26.60
2019-02-14T21:11:54.987Z,29.13
2019-02-14T21:14:24.877Z,26.40
2019-02-14T21:16:55.577Z,29.50
2019-02-14T21:19:27.742Z,28.43
2019-02-14T21:21:56.845Z,29.57
2019-02-14T21:24:31.129Z,25.17
2019-02-14T21:27:00.337Z,28.57
2019-02-14T21:29:29.373Z,35.40
2019-02-14T21:31:58.279Z,28.47
2019-02-14T21:34:27.326Z,28.63
2019-02-14T21:36:56.344Z,30.00
2019-02-14T21:39:25.646Z,31.43
2019-02-14T21:42:17.286Z,27.90
2019-02-14T21:44:25.348Z,30.63
2019-02-14T21:46:54.387Z,35.77
2019-02-14T21:49:23.368Z,31.53
2019-02-14T21:51:53.827Z,39.53
2019-02-14T21:54:22.924Z,34.27
2019-02-14T21:56:52.315Z,33.67
2019-02-14T21:59:21.266Z,35.83
2019-02-14T22:01:50.340Z,31.80
2019-02-14T22:04:19.826Z,31.63
2019-02-14T22:06:48.844Z,31.87
2019-02-14T22:09:17.938Z,30.97
2019-02-14T22:11:47.018Z,29.20
2019-02-14T22:14:15.908Z,32.53
2019-02-14T22:16:44.934Z,30.27
2019-02-14T22:19:14.274Z,32.87
2019-02-14T22:21:43.621Z,32.93
2019-02-14T22:24:13.542Z,31.63
2019-02-14T22:26:42.437Z,34.70
2019-02-14T22:29:11.338Z,31.17
2019-02-14T22:31:40.292Z,31.23
2019-02-14T22:34:09.191Z,33.20
2019-02-14T22:36:38.389Z,33.67
2019-02-14T22:39:07.488Z,36.90
2019-02-14T22:41:36.346Z,34.83
2019-02-14T22:44:05.279Z,36.50
2019-02-14T22:46:34.106Z,32.83
2019-02-14T22:49:06.302Z,33.53
2019-02-14T22:51:35.303Z,32.40
2019-02-14T22:54:05.286Z,34.07
2019-02-14T22:56:40.538Z,32.00
2019-02-14T22:59:12.919Z,33.73
2019-02-14T23:01:43.343Z,34.33
2019-02-14T23:04:13.630Z,42.57
2019-02-14T23:06:47.819Z,34.70
2019-02-14T23:09:18.763Z,37.87
2019-02-14T23:11:59.843Z,33.57
2019-02-14T23:14:31.760Z,34.07
2019-02-14T23:17:01.266Z,33.67
2019-02-14T23:19:36.501Z,35.50
2019-02-14T23:22:07.633Z,38.53
2019-02-14T23:24:37.808Z,32.73
2019-02-14T23:27:08.021Z,34.90
2019-02-14T23:29:37.766Z,35.93
2019-02-14T23:32:09.934Z,36.00
2019-02-14T23:34:39.339Z,35.70
2019-02-14T23:37:12.008Z,43.13
2019-02-14T23:39:44.745Z,41.07
2019-02-14T23:42:14.145Z,37.83
2019-02-14T23:44:49.405Z,34.57
2019-02-14T23:47:20.796Z,40.47
2019-02-14T23:49:50.701Z,36.93
2019-02-14T23:52:20.058Z,36.57
2019-02-14T23:54:49.604Z,37.23
2019-02-14T23:57:19.044Z,34.33
2019-02-14T23:59:50.307Z,41.53
